createdAt,value
2024-03-12T00:01:44.847Z,98838.25
2024-03-12T00:04:12.477Z,98840.28
2024-03-12T00:06:39.627Z,98844.22
2024-03-12T00:09:11.015Z,98859.00
2024-03-12T00:11:38.411Z,98853.81
2024-03-12T00:14:05.326Z,98851.22
2024-03-12T00:16:35.109Z,98860.25
2024-03-12T00:19:03.398Z,98847.69
2024-03-12T00:21:30.713Z,98850.00
2024-03-12T00:24:00.658Z,98840.38
2024-03-12T00:26:29.519Z,98849.72
2024-03-12T00:28:56.567Z,98850.41
2024-03-12T00:31:23.626Z,98850.38
2024-03-12T00:33:50.642Z,98851.44
2024-03-12T00:36:18.167Z,98846.38
2024-03-12T00:38:45.071Z,98840.91
2024-03-12T00:41:11.985Z,98844.59
2024-03-12T00:43:38.976Z,98852.44
2024-03-12T00:46:06.198Z,98859.28
2024-03-12T00:48:33.321Z,98857.69
2024-03-12T00:51:00.260Z,98850.94
2024-03-12T00:53:27.109Z,98846.56
2024-03-12T00:55:54.448Z,98860.91
2024-03-12T00:58:22.268Z,98851.84
2024-03-12T01:00:50.600Z,98856.69
2024-03-12T01:03:18.585Z,98853.69
2024-03-12T01:05:45.586Z,98846.72
2024-03-12T01:08:14.289Z,98846.59
2024-03-12T01:10:41.205Z,98848.41
2024-03-12T01:13:12.737Z,98853.16
2024-03-12T01:15:41.396Z,98850.00
2024-03-12T01:18:10.361Z,98851.59
2024-03-12T01:20:37.782Z,98852.03
2024-03-12T01:23:07.037Z,98856.16
2024-03-12T01:25:38.462Z,98843.47
2024-03-12T01:28:07.540Z,98850.44
2024-03-12T01:30:35.948Z,98850.22
2024-03-12T01:33:03.909Z,98843.63
2024-03-12T01:35:32.062Z,98852.19
2024-03-12T01:37:59.492Z,98851.97
2024-03-12T01:40:31.751Z,98855.16
2024-03-12T01:43:04.599Z,98859.13
2024-03-12T01:45:34.381Z,98855.16
2024-03-12T01:48:10.304Z,98860.78
2024-03-12T01:50:40.464Z,98859.94
2024-03-12T01:53:08.439Z,98859.56
2024-03-12T01:55:44.488Z,98868.75
2024-03-12T01:58:16.593Z,98860.00
2024-03-12T02:00:45.503Z,98867.53
2024-03-12T02:03:12.601Z,98870.13
2024-03-12T02:05:42.506Z,98864.81
2024-03-12T02:08:09.871Z,98869.56
2024-03-12T02:10:36.767Z,98867.22
2024-03-12T02:13:03.847Z,98872.63
2024-03-12T02:15:31.297Z,98882.75
2024-03-12T02:17:58.380Z,98879.19
2024-03-12T02:20:28.091Z,98882.75
2024-03-12T02:22:57.105Z,98880.38
2024-03-12T02:25:24.864Z,98881.97
2024-03-12T02:27:52.689Z,98881.97
2024-03-12T02:30:20.356Z,98880.38
2024-03-12T02:32:48.336Z,98891.16
2024-03-12T02:35:17.009Z,98882.63
2024-03-12T02:37:44.414Z,98893.31
2024-03-12T02:40:15.621Z,98893.50
2024-03-12T02:42:45.649Z,98900.50
2024-03-12T02:45:17.989Z,98889.38
2024-03-12T02:47:47.614Z,98888.00
2024-03-12T02:50:17.176Z,98891.94
2024-03-12T02:52:46.272Z,98882.41
2024-03-12T02:55:13.730Z,98877.50
2024-03-12T02:57:40.715Z,98879.66
2024-03-12T03:00:19.515Z,98882.66
2024-03-12T03:02:47.121Z,98890.56
2024-03-12T03:05:14.551Z,98893.31
2024-03-12T03:07:43.090Z,98898.25
2024-03-12T03:10:12.315Z,98887.13
2024-03-12T03:12:40.663Z,98888.47
2024-03-12T03:15:08.949Z,98895.00
2024-03-12T03:17:38.861Z,98895.00
2024-03-12T03:20:07.710Z,98895.81
2024-03-12T03:22:36.469Z,98893.81
2024-03-12T03:25:03.616Z,98897.41
2024-03-12T03:27:32.055Z,98908.75
2024-03-12T03:30:00.808Z,98911.94
2024-03-12T03:32:27.720Z,98909.34
2024-03-12T03:34:54.892Z,98915.66
2024-03-12T03:37:22.063Z,98914.84
2024-03-12T03:39:49.157Z,98914.72
2024-03-12T03:42:16.502Z,98915.66
2024-03-12T03:44:43.760Z,98920.25
2024-03-12T03:47:10.676Z,98919.81
2024-03-12T03:49:37.491Z,98920.41
2024-03-12T03:52:04.547Z,98907.47
2024-03-12T03:54:31.544Z,98914.84
2024-03-12T03:56:58.395Z,98910.66
2024-03-12T03:59:26.245Z,98908.66
2024-03-12T04:01:53.545Z,98908.44
2024-03-12T04:04:20.662Z,98912.84
2024-03-12T04:06:50.292Z,98912.84
2024-03-12T04:09:18.714Z,98920.59
2024-03-12T04:11:45.654Z,98919.56
2024-03-12T04:14:12.475Z,98926.19
2024-03-12T04:16:39.265Z,98919.44
2024-03-12T04:19:06.283Z,98928.34
2024-03-12T04:21:33.368Z,98931.88
2024-03-12T04:24:00.268Z,98931.06
2024-03-12T04:26:30.285Z,98939.00
2024-03-12T04:28:57.324Z,98937.91
2024-03-12T04:31:24.505Z,98943.41
2024-03-12T04:33:53.894Z,98941.03
2024-03-12T04:36:24.297Z,98943.38
2024-03-12T04:38:51.767Z,98955.69
2024-03-12T04:41:22.164Z,98952.88
2024-03-12T04:43:49.822Z,98951.72
2024-03-12T04:46:16.815Z,98955.28
2024-03-12T04:48:44.374Z,98963.06
2024-03-12T04:51:12.247Z,98966.78
2024-03-12T04:53:39.114Z,98971.78
2024-03-12T04:56:06.003Z,98966.44
2024-03-12T04:58:32.791Z,98976.69
2024-03-12T05:01:00.135Z,98979.44
2024-03-12T05:03:32.416Z,98979.03
2024-03-12T05:05:59.223Z,98979.09
2024-03-12T05:08:26.172Z,98984.31
2024-03-12T05:10:53.079Z,98993.44
2024-03-12T05:13:22.843Z,98992.00
2024-03-12T05:15:49.720Z,98997.97
2024-03-12T05:18:16.615Z,99001.16
2024-03-12T05:20:43.440Z,99000.00
2024-03-12T05:23:11.619Z,99002.38
2024-03-12T05:25:42.531Z,99009.72
2024-03-12T05:28:11.072Z,99003.31
2024-03-12T05:30:39.254Z,99010.88
2024-03-12T05:33:11.060Z,99018.97
2024-03-12T05:35:40.373Z,99013.66
2024-03-12T05:38:23.643Z,99010.28
2024-03-12T05:41:16.323Z,99019.09
2024-03-12T05:44:01.684Z,99015.13
2024-03-12T05:46:48.639Z,99021.53
2024-03-12T05:49:16.083Z,99028.88
2024-03-12T05:51:43.520Z,99032.47
2024-03-12T05:54:11.143Z,99038.06
2024-03-12T05:56:38.969Z,99034.88
2024-03-12T05:59:06.096Z,99047.22
2024-03-12T06:01:33.787Z,99037.31
2024-03-12T06:04:00.957Z,99037.75
2024-03-12T06:06:27.991Z,99053.06
2024-03-12T06:08:55.089Z,99056.50
2024-03-12T06:11:22.194Z,99059.06
2024-03-12T06:13:49.153Z,99063.03
2024-03-12T06:16:19.720Z,99057.31
2024-03-12T06:18:46.778Z,99063.28
2024-03-12T06:21:13.525Z,99080.00
2024-03-12T06:23:41.066Z,99077.19
2024-03-12T06:26:08.252Z,99077.66
2024-03-12T06:28:35.795Z,99079.78
2024-03-12T06:31:05.689Z,99073.63
2024-03-12T06:33:33.659Z,99082.38
2024-03-12T06:36:00.638Z,99091.16
2024-03-12T06:38:27.435Z,99095.16
2024-03-12T06:40:54.912Z,99098.31
2024-03-12T06:43:22.630Z,99097.16
2024-03-12T06:45:50.528Z,99095.16
2024-03-12T06:48:19.681Z,99097.31
2024-03-12T06:50:47.064Z,99108.09
2024-03-12T06:53:17.081Z,99111.88
2024-03-12T06:55:47.153Z,99109.69
2024-03-12T06:58:20.595Z,99113.09
2024-03-12T07:00:49.520Z,99124.22
2024-03-12T07:03:18.403Z,99125.00
2024-03-12T07:05:48.409Z,99129.38
2024-03-12T07:08:18.401Z,99129.38
2024-03-12T07:10:46.780Z,99130.38
2024-03-12T07:13:14.238Z,99142.47
2024-03-12T07:15:43.760Z,99136.91
2024-03-12T07:18:11.073Z,99143.28
2024-03-12T07:20:38.218Z,99139.25
2024-03-12T07:23:07.044Z,99147.81
2024-03-12T07:25:34.654Z,99151.53
2024-03-12T07:28:07.862Z,99154.13
2024-03-12T07:30:36.357Z,99157.09
2024-03-12T07:33:04.863Z,99149.19
2024-03-12T07:35:36.279Z,99143.56
2024-03-12T07:38:05.360Z,99155.31
2024-03-12T07:40:33.581Z,99159.09
2024-03-12T07:43:01.110Z,99154.28
2024-03-12T07:45:28.846Z,99147.88
2024-03-12T07:47:57.504Z,99161.00
2024-03-12T07:50:29.651Z,99159.22
2024-03-12T07:52:57.081Z,99167.16
2024-03-12T07:55:24.362Z,99168.56
2024-03-12T07:57:51.768Z,99163.75
2024-03-12T08:00:20.651Z,99173.09
2024-03-12T08:02:47.673Z,99178.44
2024-03-12T08:05:14.655Z,99180.50
2024-03-12T08:07:41.561Z,99185.66
2024-03-12T08:10:11.087Z,99187.47
2024-03-12T08:12:40.931Z,99189.47
2024-03-12T08:15:10.368Z,99195.63
2024-03-12T08:17:39.366Z,99211.56
2024-03-12T08:20:07.616Z,99198.84
2024-03-12T08:22:34.744Z,99206.47
2024-03-12T08:25:02.315Z,99202.28
2024-03-12T08:27:30.676Z,99198.09
2024-03-12T08:29:58.693Z,99210.03
2024-03-12T08:32:26.559Z,99209.63
2024-03-12T08:34:53.818Z,99211.63
2024-03-12T08:37:23.746Z,99221.53
2024-03-12T08:39:54.323Z,99223.91
2024-03-12T08:42:21.875Z,99218.75
2024-03-12T08:44:49.133Z,99218.34
2024-03-12T08:47:16.335Z,99231.84
2024-03-12T08:49:44.077Z,99222.63
2024-03-12T08:52:11.018Z,99228.97
2024-03-12T08:54:38.722Z,99230.38
2024-03-12T08:57:06.021Z,99229.19
2024-03-12T08:59:33.018Z,99234.50
2024-03-12T09:02:01.383Z,99236.50
2024-03-12T09:04:31.751Z,99240.44
2024-03-12T09:06:59.019Z,99231.22
2024-03-12T09:09:27.930Z,99237.63
2024-03-12T09:11:57.170Z,99253.56
2024-03-12T09:14:24.715Z,99249.56
2024-03-12T09:16:52.146Z,99250.81
2024-03-12T09:19:19.067Z,99242.25
2024-03-12T09:21:46.331Z,99251.63
2024-03-12T09:24:13.181Z,99254.84
2024-03-12T09:26:40.137Z,99252.03
2024-03-12T09:29:07.512Z,99258.38
2024-03-12T09:31:36.100Z,99262.16
2024-03-12T09:34:05.528Z,99271.09
2024-03-12T09:36:35.239Z,99271.28
2024-03-12T09:39:02.476Z,99278.63
2024-03-12T09:41:30.263Z,99274.03
2024-03-12T09:43:57.458Z,99285.31
2024-03-12T09:46:25.122Z,99289.66
2024-03-12T09:48:53.314Z,99299.75
2024-03-12T09:51:22.537Z,99302.31
2024-03-12T09:53:52.337Z,99290.78
2024-03-12T09:56:20.185Z,99308.75
2024-03-12T09:58:49.171Z,99307.97
2024-03-12T10:01:16.501Z,99311.97
2024-03-12T10:03:43.926Z,99318.97
2024-03-12T10:06:11.167Z,99317.97
2024-03-12T10:08:38.326Z,99323.88
2024-03-12T10:11:10.201Z,99326.44
2024-03-12T10:13:41.682Z,99326.28
2024-03-12T10:16:09.830Z,99332.47
2024-03-12T10:18:38.929Z,99334.44
2024-03-12T10:21:08.320Z,99335.53
2024-03-12T10:23:38.921Z,99336.41
2024-03-12T10:26:10.815Z,99347.00
2024-03-12T10:28:39.147Z,99323.72
2024-03-12T10:31:11.718Z,99342.28
2024-03-12T10:33:43.458Z,99342.44
2024-03-12T10:36:12.472Z,99346.63
2024-03-12T10:38:41.697Z,99345.44
2024-03-12T10:41:22.565Z,99342.06
2024-03-12T10:43:52.003Z,99343.44
2024-03-12T10:46:20.769Z,99347.81
2024-03-12T10:48:49.863Z,99355.59
2024-03-12T10:51:18.936Z,99358.81
2024-03-12T10:53:54.005Z,99342.91
2024-03-12T10:56:23.063Z,99344.13
2024-03-12T10:58:50.555Z,99347.09
2024-03-12T11:01:19.898Z,99346.50
2024-03-12T11:03:48.369Z,99352.09
2024-03-12T11:06:20.257Z,99354.47
2024-03-12T11:08:47.507Z,99362.66
2024-03-12T11:11:15.842Z,99360.84
2024-03-12T11:13:43.035Z,99363.25
2024-03-12T11:16:20.517Z,99365.66
2024-03-12T11:18:50.849Z,99369.81
2024-03-12T11:21:31.220Z,99377.97
2024-03-12T11:23:59.314Z,99375.59
2024-03-12T11:26:36.944Z,99382.38
2024-03-12T11:29:04.154Z,99386.31
2024-03-12T11:31:41.370Z,99383.56
2024-03-12T11:34:08.270Z,99391.88
2024-03-12T11:36:41.430Z,99387.94
2024-03-12T11:39:16.718Z,99385.16
2024-03-12T11:41:58.930Z,99385.13
2024-03-12T11:44:54.886Z,99387.16
2024-03-12T11:47:38.362Z,99384.72
2024-03-12T11:50:26.165Z,99387.13
2024-03-12T11:52:53.068Z,99394.69
2024-03-12T11:55:52.557Z,99390.50
2024-03-12T11:58:21.590Z,99401.84
2024-03-12T12:00:52.274Z,99388.69
2024-03-12T12:03:20.259Z,99397.66
2024-03-12T12:05:47.345Z,99398.44
2024-03-12T12:08:16.270Z,99397.84
2024-03-12T12:10:43.478Z,99383.13
2024-03-12T12:13:15.682Z,99391.28
2024-03-12T12:15:55.794Z,99403.59
2024-03-12T12:18:23.051Z,99399.81
2024-03-12T12:20:49.890Z,99405.78
2024-03-12T12:23:16.656Z,99408.56
2024-03-12T12:25:49.033Z,99408.56
2024-03-12T12:28:17.729Z,99395.47
2024-03-12T12:30:47.537Z,99409.00
2024-03-12T12:33:15.232Z,99404.63
2024-03-12T12:35:48.596Z,99400.22
2024-03-12T12:38:18.269Z,99411.19
2024-03-12T12:40:46.549Z,99409.94
2024-03-12T12:43:21.037Z,99414.56
2024-03-12T12:45:48.594Z,99411.59
2024-03-12T12:48:17.083Z,99412.97
2024-03-12T12:50:44.596Z,99400.19
2024-03-12T12:53:11.394Z,99419.75
2024-03-12T12:55:38.341Z,99418.13
2024-03-12T12:58:08.157Z,99411.75
2024-03-12T13:00:41.020Z,99424.09
2024-03-12T13:03:19.094Z,99419.72
2024-03-12T13:05:47.269Z,99416.75
2024-03-12T13:08:42.801Z,99421.94
2024-03-12T13:11:10.596Z,99418.53
2024-03-12T13:13:39.011Z,99427.66
2024-03-12T13:16:16.421Z,99420.09
2024-03-12T13:18:48.341Z,99417.28
2024-03-12T13:21:16.763Z,99421.72
2024-03-12T13:23:47.053Z,99426.06
2024-03-12T13:26:18.659Z,99422.06
2024-03-12T13:28:50.643Z,99417.66
2024-03-12T13:31:17.687Z,99428.41
2024-03-12T13:33:45.346Z,99438.53
2024-03-12T13:36:12.910Z,99436.94
2024-03-12T13:38:43.618Z,99434.13
2024-03-12T13:41:11.400Z,99435.13
2024-03-12T13:43:39.296Z,99433.94
2024-03-12T13:46:06.890Z,99441.88
2024-03-12T13:48:37.745Z,99438.72
2024-03-12T13:51:08.772Z,99431.97
2024-03-12T13:53:36.329Z,99428.72
2024-03-12T13:56:06.121Z,99438.72
2024-03-12T13:58:33.406Z,99440.91
2024-03-12T14:01:00.801Z,99430.38
2024-03-12T14:03:29.636Z,99439.16
2024-03-12T14:05:57.502Z,99432.75
2024-03-12T14:08:24.797Z,99441.91
2024-03-12T14:10:53.135Z,99447.13
2024-03-12T14:13:22.597Z,99448.50
2024-03-12T14:15:49.769Z,99440.38
2024-03-12T14:18:17.259Z,99433.16
2024-03-12T14:20:44.389Z,99458.50
2024-03-12T14:23:11.341Z,99459.06
2024-03-12T14:25:38.751Z,99444.75
2024-03-12T14:28:08.529Z,99454.75
2024-03-12T14:30:35.405Z,99451.16
2024-03-12T14:33:02.530Z,99452.97
2024-03-12T14:35:29.424Z,99441.66
2024-03-12T14:37:57.086Z,99447.41
2024-03-12T14:40:24.118Z,99452.41
2024-03-12T14:42:53.374Z,99446.84
2024-03-12T14:45:20.428Z,99451.81
2024-03-12T14:47:47.364Z,99434.88
2024-03-12T14:50:15.508Z,99434.88
2024-03-12T14:52:42.674Z,99451.59
2024-03-12T14:55:11.124Z,99461.16
2024-03-12T14:57:38.964Z,99457.97
2024-03-12T15:00:09.357Z,99461.56
2024-03-12T15:02:39.534Z,99469.09
2024-03-12T15:05:12.418Z,99469.09
2024-03-12T15:07:41.160Z,99466.72
2024-03-12T15:10:11.523Z,99463.13
2024-03-12T15:12:40.993Z,99460.56
2024-03-12T15:15:13.542Z,99442.44
2024-03-12T15:17:43.319Z,99444.47
2024-03-12T15:20:20.145Z,99450.63
2024-03-12T15:22:50.405Z,99434.47
2024-03-12T15:25:20.443Z,99442.44
2024-03-12T15:27:50.386Z,99445.66
2024-03-12T15:30:17.997Z,99434.47
2024-03-12T15:32:47.012Z,99433.31
2024-03-12T15:35:15.565Z,99453.97
2024-03-12T15:37:43.534Z,99453.97
2024-03-12T15:40:12.953Z,99454.78
2024-03-12T15:42:45.157Z,99471.91
2024-03-12T15:45:16.279Z,99462.34
2024-03-12T15:47:45.019Z,99474.22
2024-03-12T15:50:13.060Z,99457.50
2024-03-12T15:52:40.416Z,99486.13
2024-03-12T15:55:09.330Z,99486.50
2024-03-12T15:57:38.646Z,99477.34
2024-03-12T16:00:10.518Z,99482.91
2024-03-12T16:02:40.779Z,99474.00
2024-03-12T16:05:07.978Z,99478.53
2024-03-12T16:07:40.632Z,99468.22
2024-03-12T16:10:12.292Z,99472.97
2024-03-12T16:12:42.689Z,99487.31
2024-03-12T16:15:12.037Z,99497.44
2024-03-12T16:17:39.025Z,99488.28
2024-03-12T16:20:13.575Z,99489.66
2024-03-12T16:22:42.005Z,99498.41
2024-03-12T16:25:09.651Z,99496.84
2024-03-12T16:27:37.047Z,99487.91
2024-03-12T16:30:05.374Z,99508.19
2024-03-12T16:32:33.766Z,99505.41
2024-03-12T16:35:00.965Z,99517.94
2024-03-12T16:37:28.459Z,99507.97
2024-03-12T16:39:55.588Z,99516.50
2024-03-12T16:42:22.956Z,99511.13
2024-03-12T16:44:51.335Z,99526.81
2024-03-12T16:47:18.178Z,99525.81
2024-03-12T16:49:46.710Z,99527.41
2024-03-12T16:52:15.410Z,99526.41
2024-03-12T16:54:43.066Z,99521.88
2024-03-12T16:57:10.685Z,99526.59
2024-03-12T16:59:37.828Z,99527.38
2024-03-12T17:02:09.510Z,99533.97
2024-03-12T17:04:38.202Z,99521.88
2024-03-12T17:07:09.333Z,99528.59
2024-03-12T17:09:43.025Z,99530.78
2024-03-12T17:12:10.693Z,99539.75
2024-03-12T17:14:37.713Z,99538.41
2024-03-12T17:17:08.506Z,99535.44
2024-03-12T17:19:40.294Z,99545.75
2024-03-12T17:22:07.733Z,99541.03
2024-03-12T17:24:35.918Z,99555.34
2024-03-12T17:27:06.169Z,99556.94
2024-03-12T17:29:33.318Z,99556.56
2024-03-12T17:32:00.734Z,99564.75
2024-03-12T17:34:29.017Z,99567.34
2024-03-12T17:37:00.344Z,99557.19
2024-03-12T17:39:33.523Z,99558.78
2024-03-12T17:42:01.919Z,99573.91
2024-03-12T17:44:29.352Z,99575.13
2024-03-12T17:46:56.895Z,99576.53
2024-03-12T17:49:26.717Z,99580.88
2024-03-12T17:51:55.174Z,99595.97
2024-03-12T17:54:22.770Z,99589.19
2024-03-12T17:56:51.665Z,99581.44
2024-03-12T17:59:20.329Z,99598.00
2024-03-12T18:01:48.120Z,99599.41
2024-03-12T18:04:15.770Z,99596.41
2024-03-12T18:06:45.374Z,99603.81
2024-03-12T18:09:13.544Z,99618.34
2024-03-12T18:11:43.693Z,99593.28
2024-03-12T18:14:11.648Z,99626.09
2024-03-12T18:16:39.453Z,99623.09
2024-03-12T18:19:07.371Z,99621.91
2024-03-12T18:21:35.446Z,99640.22
2024-03-12T18:24:02.449Z,99635.66
2024-03-12T18:26:29.472Z,99644.25
2024-03-12T18:28:58.023Z,99643.41
2024-03-12T18:31:25.749Z,99648.69
2024-03-12T18:33:52.783Z,99656.38
2024-03-12T18:36:20.598Z,99661.34
2024-03-12T18:38:47.771Z,99661.78
2024-03-12T18:41:15.318Z,99679.47
2024-03-12T18:43:42.698Z,99698.81
2024-03-12T18:46:09.961Z,99699.59
2024-03-12T18:48:37.558Z,99701.22
2024-03-12T18:51:06.056Z,99703.59
2024-03-12T18:53:34.930Z,99702.41
2024-03-12T18:56:04.199Z,99701.66
2024-03-12T18:58:31.596Z,99714.00
2024-03-12T19:00:59.426Z,99703.28
2024-03-12T19:03:40.178Z,99701.69
2024-03-12T19:06:19.214Z,99701.25
2024-03-12T19:08:53.568Z,99713.63
2024-03-12T19:11:21.537Z,99701.91
2024-03-12T19:13:49.600Z,99716.78
2024-03-12T19:16:21.805Z,99711.03
2024-03-12T19:18:50.579Z,99714.63
2024-03-12T19:21:20.933Z,99713.41
2024-03-12T19:23:49.792Z,99711.81
2024-03-12T19:26:19.066Z,99707.66
2024-03-12T19:28:46.802Z,99712.41
2024-03-12T19:31:15.408Z,99708.44
2024-03-12T19:33:43.498Z,99715.00
2024-03-12T19:36:12.534Z,99718.81
2024-03-12T19:38:40.372Z,99710.88
2024-03-12T19:41:08.450Z,99702.09
2024-03-12T19:43:35.625Z,99716.88
2024-03-12T19:46:02.810Z,99710.88
2024-03-12T19:48:30.111Z,99717.22
2024-03-12T19:50:57.185Z,99722.06
2024-03-12T19:53:24.188Z,99729.19
2024-03-12T19:55:52.596Z,99722.25
2024-03-12T19:58:19.868Z,99731.25
2024-03-12T20:00:49.388Z,99736.16
2024-03-12T20:03:23.271Z,99741.53
2024-03-12T20:05:51.033Z,99742.72
2024-03-12T20:08:18.192Z,99734.16
2024-03-12T20:10:47.119Z,99741.13
2024-03-12T20:13:14.582Z,99739.13
2024-03-12T20:15:46.052Z,99743.50
2024-03-12T20:18:14.814Z,99743.50
2024-03-12T20:20:44.495Z,99749.28
2024-03-12T20:23:12.069Z,99743.91
2024-03-12T20:25:39.246Z,99750.88
2024-03-12T20:28:10.961Z,99751.31
2024-03-12T20:30:40.190Z,99754.72
2024-03-12T20:33:09.765Z,99749.34
2024-03-12T20:35:39.334Z,99757.94
2024-03-12T20:38:08.018Z,99752.56
2024-03-12T20:40:35.172Z,99759.91
2024-03-12T20:43:02.215Z,99751.53
2024-03-12T20:45:30.153Z,99749.38
2024-03-12T20:47:57.418Z,99755.94
2024-03-12T20:50:25.002Z,99751.16
2024-03-12T20:52:52.187Z,99750.78
2024-03-12T20:55:20.002Z,99745.59
2024-03-12T20:57:49.052Z,99749.19
2024-03-12T21:00:33.324Z,99744.22
2024-03-12T21:03:00.858Z,99745.00
2024-03-12T21:05:33.044Z,99742.84
2024-03-12T21:08:01.464Z,99745.25
2024-03-12T21:10:28.426Z,99734.25
2024-03-12T21:12:56.929Z,99740.63
2024-03-12T21:15:23.932Z,99736.06
2024-03-12T21:17:51.068Z,99736.47
2024-03-12T21:20:33.503Z,99733.28
2024-03-12T21:23:00.775Z,99739.28
2024-03-12T21:25:30.243Z,99738.47
2024-03-12T21:27:58.976Z,99740.44
2024-03-12T21:30:26.193Z,99739.06
2024-03-12T21:32:54.799Z,99748.81
2024-03-12T21:35:22.035Z,99735.31
2024-03-12T21:37:48.895Z,99747.84
2024-03-12T21:40:17.452Z,99744.66
2024-03-12T21:42:45.754Z,99741.06
2024-03-12T21:45:16.832Z,99738.88
2024-03-12T21:47:46.780Z,99743.63
2024-03-12T21:50:15.574Z,99752.22
2024-03-12T21:52:43.152Z,99747.66
2024-03-12T21:55:12.145Z,99747.22
2024-03-12T21:57:41.052Z,99749.44
2024-03-12T22:00:29.879Z,99747.66
2024-03-12T22:02:58.730Z,99751.41
2024-03-12T22:05:25.912Z,99755.41
2024-03-12T22:07:53.441Z,99752.84
2024-03-12T22:10:20.527Z,99765.78
2024-03-12T22:12:48.121Z,99763.19
2024-03-12T22:15:16.146Z,99763.63
2024-03-12T22:17:45.897Z,99769.97
2024-03-12T22:20:19.910Z,99764.78
2024-03-12T22:22:50.594Z,99769.19
2024-03-12T22:25:19.961Z,99764.78
2024-03-12T22:27:49.323Z,99764.00
2024-03-12T22:30:17.777Z,99766.00
2024-03-12T22:32:46.331Z,99775.56
2024-03-12T22:35:13.607Z,99769.53
2024-03-12T22:37:43.454Z,99765.19
2024-03-12T22:40:13.720Z,99773.56
2024-03-12T22:42:41.347Z,99767.22
2024-03-12T22:45:10.806Z,99765.16
2024-03-12T22:47:40.697Z,99767.34
2024-03-12T22:50:09.261Z,99764.97
2024-03-12T22:52:37.663Z,99761.59
2024-03-12T22:55:08.716Z,99767.94
2024-03-12T22:57:39.682Z,99773.94
2024-03-12T23:00:25.243Z,99773.75
2024-03-12T23:03:03.697Z,99775.91
2024-03-12T23:05:35.548Z,99781.34
2024-03-12T23:08:07.182Z,99769.13
2024-03-12T23:10:37.837Z,99780.09
2024-03-12T23:13:05.723Z,99776.72
2024-03-12T23:15:32.802Z,99786.44
2024-03-12T23:18:04.119Z,99776.31
2024-03-12T23:20:31.989Z,99769.13
2024-03-12T23:22:59.467Z,99764.56
2024-03-12T23:25:26.311Z,99772.34
2024-03-12T23:27:55.528Z,99765.53
2024-03-12T23:30:23.239Z,99774.31
2024-03-12T23:32:52.816Z,99772.75
2024-03-12T23:35:20.032Z,99773.94
2024-03-12T23:37:46.917Z,99769.13
2024-03-12T23:40:13.826Z,99774.72
2024-03-12T23:42:41.389Z,99776.31
2024-03-12T23:45:11.624Z,99779.47
2024-03-12T23:47:40.585Z,99775.13
2024-03-12T23:50:12.692Z,99768.72
2024-03-12T23:52:43.065Z,99785.84
2024-03-12T23:55:12.364Z,99783.81
2024-03-12T23:57:39.767Z,99772.47
